Time;durP1;ratioP1;P1;durP2;ratioP2;P2;SDS_P1;SDS_P2;PMS_P1;PMS_P2;Temp;Humidity;BMP_temperature;BMP_pressure;BME280_temperature;BME280_humidity;BME280_pressure;Samples;Min_cycle;Max_cycle;Signal;HPM_P1;HPM_P2
2022/08/01 00:01:28;;;;;;;13.70;6.22;;;;;;;;;;6224022;23;20031;-82
2022/08/01 00:03:54;;;;;;;9.60;6.13;;;;;;;;;;6223284;23;20004;-81
2022/08/01 00:06:20;;;;;;;10.35;5.93;;;;;;;;;;6225250;23;19996;-82
2022/08/01 00:08:46;;;;;;;7.57;5.78;;;;;;;;;;6223415;23;20086;-82
2022/08/01 00:11:13;;;;;;;11.70;6.70;;;;;;;;;;6223608;23;20008;-81
2022/08/01 00:13:39;;;;;;;8.48;5.60;;;;;;;;;;6223637;23;20004;-82
2022/08/01 00:16:06;;;;;;;8.77;5.28;;;;;;;;;;6222925;23;20011;-83
2022/08/01 00:18:32;;;;;;;12.00;5.13;;;;;;;;;;6223270;23;20004;-83
2022/08/01 00:20:58;;;;;;;10.15;5.75;;;;;;;;;;6223118;23;20004;-83
2022/08/01 00:23:24;;;;;;;9.55;6.05;;;;;;;;;;6224553;23;20064;-83
2022/08/01 00:25:50;;;;;;;9.57;5.40;;;;;;;;;;6223076;23;20003;-83
2022/08/01 00:28:16;;;;;;;7.82;5.63;;;;;;;;;;6222926;23;20080;-82
2022/08/01 00:30:43;;;;;;;7.45;5.63;;;;;;;;;;6223064;23;20004;-81
2022/08/01 00:33:09;;;;;;;11.50;7.30;;;;;;;;;;6223087;23;20023;-82
2022/08/01 00:35:35;;;;;;;8.68;5.63;;;;;;;;;;6230550;23;20422;-81
2022/08/01 00:38:01;;;;;;;10.45;5.97;;;;;;;;;;6236103;23;20024;-82
2022/08/01 00:40:27;;;;;;;8.48;5.38;;;;;;;;;;6237255;23;20027;-81
2022/08/01 00:42:53;;;;;;;10.15;5.95;;;;;;;;;;6237566;23;20000;-82
2022/08/01 00:45:19;;;;;;;7.90;5.93;;;;;;;;;;6250839;23;20020;-83
2022/08/01 00:47:46;;;;;;;10.10;5.45;;;;;;;;;;6251449;23;20000;-83
2022/08/01 00:50:12;;;;;;;9.68;5.50;;;;;;;;;;6251349;23;20031;-83
2022/08/01 00:52:40;;;;;;;10.05;5.95;;;;;;;;;;6243585;23;20000;-83
2022/08/01 00:55:06;;;;;;;9.77;5.53;;;;;;;;;;6244258;23;19989;-83
2022/08/01 00:57:33;;;;;;;6.75;5.28;;;;;;;;;;6244509;23;20024;-81
2022/08/01 00:59:59;;;;;;;6.60;5.28;;;;;;;;;;6239029;23;20039;-83
2022/08/01 01:02:25;;;;;;;10.23;5.80;;;;;;;;;;6219758;23;20005;-81
2022/08/01 01:04:51;;;;;;;7.53;4.53;;;;;;;;;;6219538;23;20104;-81
2022/08/01 01:07:17;;;;;;;10.98;5.82;;;;;;;;;;6218864;23;20012;-83
2022/08/01 01:09:46;;;;;;;10.27;5.55;;;;;;;;;;6216611;23;20322;-82
2022/08/01 01:12:35;;;;;;;7.32;5.63;;;;;;;;;;6215930;23;20003;-81
2022/08/01 01:15:16;;;;;;;8.05;5.78;;;;;;;;;;6216684;23;20001;-82
2022/08/01 01:17:49;;;;;;;9.52;5.82;;;;;;;;;;6216369;23;20032;-83
2022/08/01 01:20:16;;;;;;;7.55;5.72;;;;;;;;;;6215934;23;20008;-82
2022/08/01 01:23:01;;;;;;;8.07;5.60;;;;;;;;;;6218132;23;20069;-82
2022/08/01 01:25:40;;;;;;;9.88;6.65;;;;;;;;;;6215944;23;20088;-81
2022/08/01 01:28:15;;;;;;;8.63;5.00;;;486.80;2380.80;;;;;;6215525;23;20047;-82
2022/08/01 01:30:44;;;;;;;12.07;5.85;;;486.50;2380.80;;;;;;6215442;23;20000;-81
2022/08/01 01:33:12;;;;;;;9.18;5.80;;;486.60;2380.80;;;;;;6215656;23;20022;-82
2022/08/01 01:35:47;;;;;;;12.40;5.35;;;486.50;2380.80;;;;;;6216140;23;20417;-81
2022/08/01 01:38:21;;;;;;;7.50;5.50;;;486.50;2380.80;;;;;;6215996;23;20023;-83
2022/08/01 01:40:50;;;;;;;10.07;5.97;;;486.40;2380.80;;;;;;6215207;23;20027;-82
2022/08/01 01:43:18;;;;;;;15.32;10.85;;;486.50;2380.80;;;;;;6215881;23;20083;-82
2022/08/01 01:45:47;;;;;;;13.60;7.53;;;486.40;2380.80;;;;;;6215875;23;20016;-82
2022/08/01 01:48:18;;;;;;;9.77;5.72;;;486.50;2380.80;;;;;;6215256;23;20044;-82
2022/08/01 01:50:46;;;;;;;11.18;6.05;;;486.40;2380.80;;;;;;6217463;23;20431;-82
2022/08/01 01:53:15;;;;;;;8.35;5.68;;;486.40;2380.80;;;;;;6215198;23;20032;-81
2022/08/01 01:55:44;;;;;;;7.80;5.50;;;486.40;2380.80;;;;;;6215349;23;20035;-81
2022/08/01 01:58:13;;;;;;;9.02;5.65;;;461.70;2380.80;;;;;;6215758;23;20000;-81
2022/08/01 02:00:42;;;;;;;10.52;6.28;;;486.40;2380.80;;;;;;6215680;23;20008;-81
2022/08/01 02:03:11;;;;;;;10.38;5.72;;;461.70;2380.80;;;;;;6215112;23;20001;-83
2022/08/01 02:05:38;;;;;;;11.80;5.45;;;461.70;2380.80;;;;;;6215672;23;20103;-83
2022/08/01 02:08:05;;;;;;;10.68;6.18;;;486.40;2380.80;;;;;;6215473;23;20005;-81
2022/08/01 02:10:33;;;;;;;9.23;5.47;;;461.70;2380.80;;;;;;6215713;23;20036;-81
2022/08/01 02:13:06;;;;;;;10.10;5.45;;;461.60;2380.80;;;;;;6215490;23;20005;-83
2022/08/01 02:15:34;;;;;;;11.43;6.03;;;461.50;2380.80;;;;;;6215818;23;20004;-83
2022/08/01 02:18:02;;;;;;;11.25;6.30;;;461.60;2380.80;;;;;;6215959;23;20001;-85
2022/08/01 02:20:30;;;;;;;8.35;5.68;;;486.80;2380.80;;;;;;6216627;23;20322;-86
2022/08/01 02:23:11;;;;;;;9.10;5.38;;;461.50;2380.80;;;;;;6215357;23;20004;-86
2022/08/01 02:25:46;;;;;;;10.50;5.35;;;461.50;2380.80;;;;;;6215905;23;20004;-85
2022/08/01 02:28:27;;;;;;;8.07;5.75;;;461.40;2380.80;;;;;;6216777;23;20419;-85
2022/08/01 02:30:57;;;;;;;8.80;5.47;;;461.40;2380.80;;;;;;6216952;23;20062;-83
2022/08/01 02:33:33;;;;;;;9.82;5.70;;;461.40;2380.80;;;;;;6216677;23;20371;-83
2022/08/01 02:36:00;;;;;;;9.18;6.30;;;461.50;2380.80;;;;;;6215368;23;19996;-84
2022/08/01 02:38:31;;;;;;;7.82;5.35;;;461.10;2380.80;;;;;;6215491;23;20004;-83
2022/08/01 02:41:01;;;;;;;12.93;6.13;;;461.20;2380.80;;;;;;6215695;23;20009;-84
2022/08/01 02:43:30;;;;;;;7.85;5.40;;;461.10;2380.80;;;;;;6214440;23;20004;-85
2022/08/01 02:46:01;;;;;;;10.70;5.47;;;461.10;2380.80;;;;;;6215416;23;20059;-84
2022/08/01 02:48:29;;;;;;;9.38;6.32;;;461.10;2380.80;;;;;;6217132;23;20437;-83
2022/08/01 02:51:00;;;;;;;7.70;5.13;;;461.10;2380.80;;;;;;6216968;23;20334;-82
2022/08/01 02:53:29;;;;;;;9.60;5.50;;;460.80;2380.80;;;;;;6214764;23;20108;-84
2022/08/01 02:55:57;;;;;;;8.60;5.60;;;460.90;2380.80;;;;;;6216219;23;20426;-83
2022/08/01 02:58:24;;;;;;;8.40;5.45;;;461.00;2380.80;;;;;;6216272;23;20047;-84
2022/08/01 03:00:50;;;;;;;10.93;4.88;;;460.90;2380.80;;;;;;6215263;23;20124;-84
2022/08/01 03:03:17;;;;;;;8.30;5.70;;;461.00;2380.80;;;;;;6215399;23;20361;-83
2022/08/01 03:05:44;;;;;;;8.93;5.45;;;461.30;2380.80;;;;;;6215216;23;20059;-84
2022/08/01 03:08:11;;;;;;;8.73;5.32;;;460.80;2380.80;;;;;;6215244;23;19997;-83
2022/08/01 03:10:39;;;;;;;9.52;5.07;;;;;;;;;;6215420;23;20007;-82
2022/08/01 03:13:06;;;;;;;10.55;5.32;;;;;;;;;;6215050;23;20012;-82
2022/08/01 03:15:35;;;;;;;8.70;5.05;;;461.10;2380.80;;;;;;6214691;23;20011;-84
2022/08/01 03:18:04;;;;;;;12.02;5.03;;;460.90;2380.80;;;;;;6214978;23;20099;-85
2022/08/01 03:20:32;;;;;;;9.57;6.22;;;460.90;2380.80;;;;;;6215423;23;20016;-82
2022/08/01 03:23:05;;;;;;;7.60;5.40;;;460.80;2380.80;;;;;;6215176;23;20423;-83
2022/08/01 03:25:33;;;;;;;8.60;5.97;;;436.00;2355.20;;;;;;6215139;23;20001;-82
2022/08/01 03:28:03;;;;;;;9.65;5.40;;;460.80;2380.80;;;;;;6215228;23;20008;-84
2022/08/01 03:30:30;;;;;;;6.75;4.35;;;460.80;2380.80;;;;;;6215187;23;20031;-82
2022/08/01 03:32:57;;;;;;;10.25;5.38;;;460.90;2380.80;;;;;;6214713;23;20008;-83
2022/08/01 03:35:29;;;;;;;10.05;5.07;;;460.90;2380.80;;;;;;6215326;23;20326;-82
2022/08/01 03:37:56;;;;;;;8.38;5.90;;;461.00;2380.80;;;;;;6215128;23;20008;-82
2022/08/01 03:40:30;;;;;;;9.43;6.00;;;461.10;2380.80;;;;;;6214683;23;20299;-84
2022/08/01 03:43:05;;;;;;;9.07;6.18;;;461.10;2380.80;;;;;;6215375;23;20004;-81
2022/08/01 03:45:35;;;;;;;10.32;6.10;;;461.10;2380.80;;;;;;6215519;23;20421;-82
2022/08/01 03:48:05;;;;;;;7.47;5.75;;;461.10;2380.80;;;;;;6214816;23;20418;-83
2022/08/01 03:50:33;;;;;;;10.13;5.93;;;461.10;2380.80;;;;;;6215363;23;20001;-85
2022/08/01 03:53:01;;;;;;;8.93;5.55;;;461.10;2380.80;;;;;;6214367;23;20016;-84
2022/08/01 03:55:29;;;;;;;9.35;5.60;;;461.20;2380.80;;;;;;6215141;23;19997;-82
2022/08/01 03:57:56;;;;;;;8.68;5.32;;;461.30;2380.80;;;;;;6214828;23;20001;-84
2022/08/01 04:00:24;;;;;;;9.75;5.78;;;461.20;2380.80;;;;;;6214625;23;20695;-82
2022/08/01 04:02:52;;;;;;;9.38;5.28;;;461.10;2380.80;;;;;;6216623;23;20322;-83
2022/08/01 04:05:18;;;;;;;9.25;5.47;;;461.20;2380.80;;;;;;6216974;23;20027;-82
2022/08/01 04:07:55;;;;;;;7.72;4.97;;;460.90;2380.80;;;;;;6216464;23;20033;-83
2022/08/01 04:10:22;;;;;;;9.20;5.70;;;461.20;2380.80;;;;;;6215744;23;20012;-84
2022/08/01 04:12:48;;;;;;;10.65;4.90;;;461.10;2380.80;;;;;;6215294;23;20008;-83
2022/08/01 04:15:14;;;;;;;11.05;4.97;;;461.10;2380.80;;;;;;6215505;23;20012;-85
2022/08/01 04:17:40;;;;;;;10.32;5.65;;;461.20;2380.80;;;;;;6215733;23;20314;-82
2022/08/01 04:20:07;;;;;;;6.72;4.78;;;461.30;2380.80;;;;;;6215436;23;20008;-83
2022/08/01 04:22:35;;;;;;;8.75;5.13;;;461.40;2380.80;;;;;;6215071;23;20484;-83
2022/08/01 04:25:04;;;;;;;11.95;6.38;;;461.10;2380.80;;;;;;6215062;23;20066;-81
2022/08/01 04:27:35;;;;;;;6.60;5.22;;;460.80;2380.80;;;;;;6216787;23;20414;-82
2022/08/01 04:30:02;;;;;;;10.48;5.93;;;460.80;2380.80;;;;;;6217029;23;20012;-83
2022/08/01 04:32:33;;;;;;;8.70;5.55;;;460.90;2380.80;;;;;;6216972;23;20326;-84
2022/08/01 04:35:01;;;;;;;7.93;4.97;;;460.80;2380.80;;;;;;6217088;23;20005;-81
2022/08/01 04:37:28;;;;;;;12.90;4.63;;;460.90;2380.80;;;;;;6217265;23;20007;-83
2022/08/01 04:39:56;;;;;;;8.32;5.45;;;461.00;2380.80;;;;;;6216974;23;20374;-83
2022/08/01 04:42:22;;;;;;;9.10;4.93;;;461.00;2380.80;;;;;;6216489;23;20004;-83
2022/08/01 04:44:48;;;;;;;8.73;5.20;;;460.90;2380.80;;;;;;6216830;23;20088;-82
2022/08/01 04:47:14;;;;;;;8.25;4.70;;;460.80;2380.80;;;;;;6216749;23;20424;-82
2022/08/01 04:49:41;;;;;;;9.18;4.55;;;461.20;2380.80;;;;;;6216490;23;20004;-85
2022/08/01 04:52:07;;;;;;;10.23;5.00;;;461.30;2380.80;;;;;;6216314;23;20012;-85
2022/08/01 04:54:38;;;;;;;11.68;5.78;;;461.30;2380.80;;;;;;6216509;23;20000;-81
2022/08/01 04:57:05;;;;;;;8.48;5.68;;;461.20;2380.80;;;;;;6216256;23;19997;-84
2022/08/01 04:59:42;;;;;;;10.57;5.25;;;461.30;2380.80;;;;;;6216335;23;20004;-83
2022/08/01 05:02:11;;;;;;;9.98;5.47;;;461.20;2380.80;;;;;;6216470;23;20005;-82
2022/08/01 05:04:39;;;;;;;10.77;4.97;;;461.10;2380.80;;;;;;6216057;23;20318;-86
2022/08/01 05:07:06;;;;;;;9.50;5.68;;;461.10;2380.80;;;;;;6216451;23;20007;-87
2022/08/01 05:09:33;;;;;;;9.68;5.15;;;461.30;2380.80;;;;;;6218041;23;20032;-85
2022/08/01 05:12:01;;;;;;;11.90;6.05;;;461.40;2380.80;;;;;;6216205;23;20472;-83
2022/08/01 05:14:28;;;;;;;11.13;5.35;;;461.40;2380.80;;;;;;6216415;23;20005;-82
2022/08/01 05:16:54;;;;;;;10.98;6.18;;;461.40;2380.80;;;;;;6216190;23;20468;-84
2022/08/01 05:19:21;;;;;;;8.10;5.03;;;461.60;2380.80;;;;;;6216343;23;20031;-83
2022/08/01 05:21:47;;;;;;;9.32;5.43;;;486.40;2380.80;;;;;;6216343;23;20024;-84
2022/08/01 05:24:13;;;;;;;7.43;5.20;;;461.70;2380.80;;;;;;6216698;23;19997;-85
2022/08/01 05:26:39;;;;;;;10.48;5.55;;;461.50;2380.80;;;;;;6217681;23;20102;-85
2022/08/01 05:29:05;;;;;;;12.82;5.60;;;461.60;2380.80;;;;;;6217501;23;20051;-86
2022/08/01 05:31:33;;;;;;;15.10;6.05;;;461.60;2380.80;;;;;;6216515;23;20001;-85
2022/08/01 05:34:01;;;;;;;11.27;6.05;;;461.70;2380.80;;;;;;6216277;23;20429;-83
2022/08/01 05:36:27;;;;;;;10.65;5.55;;;461.70;2380.80;;;;;;6216105;23;19997;-84
2022/08/01 05:38:53;;;;;;;8.93;5.25;;;486.40;2380.80;;;;;;6217636;23;20027;-85
2022/08/01 05:41:19;;;;;;;7.82;5.25;;;486.40;2380.80;;;;;;6240938;23;20001;-83
2022/08/01 05:43:44;;;;;;;8.02;5.10;;;486.40;2380.80;;;;;;6244197;23;20057;-84
2022/08/01 05:46:10;;;;;;;7.40;4.78;;;486.50;2380.80;;;;;;6226248;23;20068;-82
2022/08/01 05:48:36;;;;;;;10.55;4.75;;;486.60;2380.80;;;;;;6223909;23;20000;-83
2022/08/01 05:51:02;;;;;;;7.18;4.90;;;486.70;2380.80;;;;;;6223974;23;20326;-82
2022/08/01 05:53:28;;;;;;;7.55;4.68;;;486.70;2380.80;;;;;;6223945;23;20012;-82
2022/08/01 05:55:54;;;;;;;8.50;4.05;;;486.60;2380.80;;;;;;6216286;23;20005;-84
2022/08/01 05:58:21;;;;;;;10.65;4.60;;;486.70;2380.80;;;;;;6215811;23;19996;-83
2022/08/01 06:00:47;;;;;;;11.10;5.15;;;486.50;2380.80;;;;;;6215723;23;20032;-82
2022/08/01 06:03:14;;;;;;;5.78;4.32;;;486.80;2380.80;;;;;;6216506;23;20001;-84
2022/08/01 06:05:40;;;;;;;12.85;6.05;;;487.00;2380.80;;;;;;6216606;23;20088;-86
2022/08/01 06:08:05;;;;;;;11.80;5.60;;;487.10;2380.80;;;;;;6216106;23;20083;-81
2022/08/01 06:10:32;;;;;;;8.15;5.03;;;487.00;2380.80;;;;;;6215844;23;20035;-82
2022/08/01 06:12:57;;;;;;;9.15;5.20;;;487.10;2380.80;;;;;;6215306;23;20327;-83
2022/08/01 06:15:23;;;;;;;13.40;5.03;;;487.20;2380.80;;;;;;6215837;23;20000;-84
2022/08/01 06:17:49;;;;;;;9.80;4.80;;;512.00;2380.80;;;;;;6215658;23;20007;-85
2022/08/01 06:20:15;;;;;;;9.95;4.97;;;512.10;2380.80;;;;;;6215566;23;20013;-82
2022/08/01 06:22:41;;;;;;;11.60;5.38;;;512.10;2380.80;;;;;;6215523;23;20422;-81
2022/08/01 06:25:08;;;;;;;11.02;5.95;;;512.30;2380.80;;;;;;6215586;23;20054;-82
2022/08/01 06:27:37;;;;;;;11.52;6.55;;;;;;;;;;6216453;23;20004;-84
2022/08/01 06:30:05;;;;;;;15.25;5.32;;;512.60;2380.80;;;;;;6216709;23;20016;-84
2022/08/01 06:32:31;;;;;;;9.23;4.75;;;512.60;2380.80;;;;;;6216251;23;20001;-81
2022/08/01 06:34:57;;;;;;;12.18;5.50;;;537.60;2406.40;;;;;;6215473;23;20004;-83
2022/08/01 06:37:23;;;;;;;9.27;5.65;;;537.60;2406.40;;;;;;6216973;23;20422;-80
2022/08/01 06:39:49;;;;;;;6.47;4.75;;;537.80;2406.40;;;;;;6215385;23;20008;-83
2022/08/01 06:42:15;;;;;;;7.97;4.90;;;537.80;2406.40;;;;;;6215096;23;20001;-83
2022/08/01 06:44:41;;;;;;;11.85;5.03;;;538.00;2406.40;;;;;;6216523;23;19997;-81
2022/08/01 06:47:07;;;;;;;9.30;5.07;;;538.00;2406.40;;;;;;6215520;23;20317;-80
2022/08/01 06:49:33;;;;;;;12.27;5.30;;;538.50;2406.40;;;;;;6215047;23;20068;-84
2022/08/01 06:51:59;;;;;;;9.70;5.10;;;538.50;2406.40;;;;;;6215353;23;20008;-80
2022/08/01 06:54:24;;;;;;;7.65;5.70;;;563.50;2432.00;;;;;;6215486;23;20047;-83
2022/08/01 06:56:50;;;;;;;11.60;5.47;;;563.40;2432.00;;;;;;6214988;23;20001;-82
2022/08/01 06:59:16;;;;;;;13.80;5.47;;;563.60;2432.00;;;;;;6215211;23;20000;-80
2022/08/01 07:01:42;;;;;;;10.02;4.43;;;;;;;;;;6215776;23;20001;-82
2022/08/01 07:04:08;;;;;;;12.32;4.80;;;564.00;2432.00;;;;;;6215184;23;20071;-81
2022/08/01 07:06:34;;;;;;;12.65;5.68;;;564.00;2432.00;;;;;;6215324;23;20426;-81
2022/08/01 07:09:01;;;;;;;6.80;3.65;;;564.10;2432.00;;;;;;6215201;23;20001;-81
2022/08/01 07:11:27;;;;;;;8.60;4.25;;;;;;;;;;6215416;23;20091;-82
2022/08/01 07:13:53;;;;;;;8.80;4.45;;;;;;;;;;6215447;23;20055;-83
2022/08/01 07:16:20;;;;;;;8.05;4.57;;;;;;;;;;6214914;23;20326;-86
2022/08/01 07:18:46;;;;;;;12.30;5.20;;;;;;;;;;6215094;23;20011;-82
2022/08/01 07:21:12;;;;;;;12.25;4.10;;;;;;;;;;6215016;23;20009;-84
2022/08/01 07:23:38;;;;;;;6.70;4.72;;;;;;;;;;6214869;23;20028;-85
2022/08/01 07:26:06;;;;;;;6.15;3.33;;;;;;;;;;6215265;23;20012;-84
2022/08/01 07:28:32;;;;;;;5.85;3.00;;;;;;;;;;6215266;23;20003;-87
2022/08/01 07:30:58;;;;;;;5.03;3.35;;;;;;;;;;6214771;23;20012;-87
2022/08/01 07:33:24;;;;;;;8.07;3.10;;;;;;;;;;6215308;23;20000;-83
2022/08/01 07:35:51;;;;;;;5.63;2.90;;;;;;;;;;6215457;23;20583;-84
2022/08/01 07:38:17;;;;;;;5.85;3.00;;;;;;;;;;6214587;23;20005;-85
2022/08/01 07:40:43;;;;;;;6.85;2.90;;;;;;;;;;6215030;23;20015;-86
2022/08/01 07:43:10;;;;;;;7.90;3.20;;;;;;;;;;6215044;23;20058;-83
2022/08/01 07:45:36;;;;;;;6.25;3.35;;;;;;;;;;6214719;23;20005;-83
2022/08/01 07:48:04;;;;;;;6.20;2.80;;;;;;;;;;6215328;23;20001;-84
2022/08/01 07:50:30;;;;;;;5.05;2.85;;;;;;;;;;6215146;23;20001;-84
2022/08/01 07:52:56;;;;;;;9.40;2.97;;;;;;;;;;6214798;23;20108;-87
2022/08/01 07:55:22;;;;;;;5.07;2.90;;;640.80;2176.00;;;;;;6215276;23;20005;-84
2022/08/01 07:57:48;;;;;;;8.35;3.25;;;640.60;2176.00;;;;;;6214890;23;20001;-84
2022/08/01 08:00:14;;;;;;;6.88;2.85;;;640.70;2176.00;;;;;;6215156;23;20084;-90
2022/08/01 08:02:40;;;;;;;8.60;3.30;;;640.60;2150.40;;;;;;6216962;23;19996;-84
2022/08/01 08:05:07;;;;;;;6.82;3.30;;;665.60;2150.40;;;;;;6217191;23;20015;-88
2022/08/01 08:07:33;;;;;;;5.82;2.90;;;;;;;;;;6217315;23;20001;-84
2022/08/01 08:09:59;;;;;;;12.70;3.60;;;;;;;;;;6216793;23;20067;-84
2022/08/01 08:12:26;;;;;;;5.32;3.00;;;;;;;;;;6216969;23;20004;-85
2022/08/01 08:14:51;;;;;;;5.10;2.38;;;666.40;2048.00;;;;;;6216489;23;20001;-83
2022/08/01 08:17:20;;;;;;;4.03;2.33;;;666.20;2022.40;;;;;;6216980;23;20031;-85
2022/08/01 08:19:46;;;;;;;5.00;3.55;;;666.30;2022.40;;;;;;6216425;23;20071;-81
2022/08/01 08:22:12;;;;;;;8.25;3.88;;;691.20;2022.40;;;;;;6216341;23;20431;-79
2022/08/01 08:24:38;;;;;;;5.65;2.60;;;691.20;1996.80;;;;;;6216353;23;20503;-82
2022/08/01 08:27:04;;;;;;;7.25;3.67;;;691.20;1996.80;;;;;;6216148;23;20009;-80
2022/08/01 08:29:32;;;;;;;5.13;3.10;;;691.20;1996.80;;;;;;6216843;23;20095;-80
2022/08/01 08:31:59;;;;;;;3.90;2.78;;;691.60;1920.00;;;;;;6216701;23;20007;-81
2022/08/01 08:34:26;;;;;;;4.30;3.10;;;691.60;1971.20;;;;;;6216356;23;20028;-80
2022/08/01 08:36:54;;;;;;;5.68;2.92;;;691.80;1945.60;;;;;;6216362;23;20004;-80
2022/08/01 08:39:20;;;;;;;5.05;2.83;;;;;;;;;;6216498;23;20000;-82
2022/08/01 08:41:47;;;;;;;4.75;2.97;;;;;;;;;;6216398;23;20004;-81
2022/08/01 08:44:14;;;;;;;4.15;2.65;;;;;;;;;;6216561;23;20001;-80
2022/08/01 08:46:44;;;;;;;3.63;2.67;;;;;;;;;;6216364;23;20000;-79
2022/08/01 08:49:11;;;;;;;5.50;2.80;;;;;;;;;;6216627;23;20008;-81
2022/08/01 08:51:42;;;;;;;4.70;2.95;;;716.90;1894.40;;;;;;6216607;23;20012;-80
2022/08/01 08:54:12;;;;;;;4.33;2.73;;;716.80;1894.40;;;;;;6215878;23;20016;-80
2022/08/01 08:56:38;;;;;;;7.20;2.95;;;716.80;1894.40;;;;;;6216555;23;20256;-80
2022/08/01 08:59:04;;;;;;;6.60;3.03;;;692.10;1868.80;;;;;;6216135;23;20099;-80
2022/08/01 09:01:36;;;;;;;6.18;3.17;;;716.80;1894.40;;;;;;6216215;23;20311;-85
2022/08/01 09:04:03;;;;;;;5.68;3.00;;;716.90;1868.80;;;;;;6216450;23;20025;-82
2022/08/01 09:06:32;;;;;;;5.53;2.70;;;717.00;1868.80;;;;;;6216327;23;20036;-83
2022/08/01 09:09:05;;;;;;;5.97;2.72;;;717.10;1843.20;;;;;;6216051;23;20004;-86
2022/08/01 09:11:31;;;;;;;4.82;2.83;;;717.10;1868.80;;;;;;6216148;23;20007;-84
2022/08/01 09:14:22;;;;;;;8.23;3.55;;;716.80;1894.40;;;;;;6215605;23;20011;-80
2022/08/01 09:16:58;;;;;;;8.68;5.00;;;717.10;1894.40;;;;;;6215787;23;20356;-83
2022/08/01 09:19:25;;;;;;;4.53;3.25;;;;;;;;;;6215733;23;20012;-85
2022/08/01 09:21:58;;;;;;;5.07;3.00;;;;;;;;;;6216422;23;20007;-82
2022/08/01 09:24:25;;;;;;;4.18;2.85;;;;;;;;;;6216166;23;20005;-82
2022/08/01 09:26:52;;;;;;;5.82;3.53;;;;;;;;;;6216025;23;20000;-82
2022/08/01 09:29:20;;;;;;;5.15;2.75;;;;;;;;;;6216114;23;20001;-82
2022/08/01 09:31:46;;;;;;;4.85;3.33;;;;;;;;;;6216230;23;20013;-82
2022/08/01 09:34:13;;;;;;;4.63;3.13;;;;;;;;;;6216296;23;20005;-79
2022/08/01 09:36:53;;;;;;;3.90;2.85;;;;;;;;;;6216055;23;20027;-81
2022/08/01 09:39:20;;;;;;;8.13;3.65;;;;;;;;;;6215715;23;20016;-80
2022/08/01 09:41:46;;;;;;;4.70;2.88;;;;;;;;;;6215759;23;20009;-80
2022/08/01 09:44:13;;;;;;;4.82;3.20;;;;;;;;;;6215668;23;20055;-83
2022/08/01 09:46:52;;;;;;;4.82;2.55;;;;;;;;;;6216088;23;19997;-80
2022/08/01 09:49:33;;;;;;;6.13;2.80;;;;;;;;;;6217092;23;20367;-84
2022/08/01 09:52:00;;;;;;;4.63;2.97;;;;;;;;;;6215557;23;20059;-82
2022/08/01 09:54:31;;;;;;;8.80;3.63;;;;;;;;;;6215859;23;20062;-84
2022/08/01 09:57:18;;;;;;;11.15;6.13;;;;;;;;;;6215921;23;20079;-84
2022/08/01 09:59:47;;;;;;;7.80;5.30;;;;;;;;;;6215547;23;20072;-81
2022/08/01 10:02:15;;;;;;;5.50;3.10;;;;;;;;;;6216160;23;20401;-80
2022/08/01 10:04:51;;;;;;;5.30;2.60;;;;;;;;;;6215533;23;20022;-81
2022/08/01 10:07:17;;;;;;;6.13;3.47;;;;;;;;;;6216047;23;20004;-85
2022/08/01 10:09:45;;;;;;;10.63;4.40;;;768.80;1664.00;;;;;;6215481;23;20024;-87
2022/08/01 10:12:17;;;;;;;5.45;3.00;;;768.70;1689.60;;;;;;6215408;23;20031;-82
2022/08/01 10:14:45;;;;;;;9.70;4.30;;;768.60;1664.00;;;;;;6216178;23;20008;-87
2022/08/01 10:17:14;;;;;;;4.68;2.78;;;768.60;1689.60;;;;;;6215823;23;20016;-87
2022/08/01 10:19:44;;;;;;;8.27;4.03;;;768.50;1664.00;;;;;;6215322;23;20009;-86
2022/08/01 10:22:18;;;;;;;8.63;2.95;;;768.50;1638.40;;;;;;6215946;23;20445;-84
2022/08/01 10:24:49;;;;;;;5.13;3.10;;;768.70;1612.80;;;;;;6215232;23;20330;-85
2022/08/01 10:27:18;;;;;;;4.88;2.88;;;768.90;1664.00;;;;;;6216011;23;20092;-85
2022/08/01 10:32:45;;;;;;;4.97;2.50;;;793.80;1612.80;;;;;;6215334;23;20007;-84
2022/08/01 10:35:16;;;;;;;4.70;2.80;;;793.80;1612.80;;;;;;6242685;23;20096;-85
2022/08/01 10:37:57;;;;;;;5.07;2.47;;;794.10;1612.80;;;;;;6238927;23;20015;-85
2022/08/01 10:40:24;;;;;;;3.65;2.30;;;794.00;1612.80;;;;;;6232206;23;20012;-84
2022/08/01 10:42:51;;;;;;;3.25;2.10;;;794.20;1587.20;;;;;;6232382;23;20000;-85
2022/08/01 10:45:17;;;;;;;8.27;2.47;;;794.00;1561.60;;;;;;6224483;23;20028;-85
2022/08/01 10:48:14;;;;;;;8.63;2.75;;;794.20;1536.00;;;;;;6216694;23;20374;-85
2022/08/01 10:50:46;;;;;;;4.80;2.40;;;794.40;1510.40;;;;;;6216173;23;20410;-85
2022/08/01 10:53:23;;;;;;;3.33;2.20;;;794.00;1587.20;;;;;;6215378;23;20434;-88
2022/08/01 10:56:02;;;;;;;3.92;2.33;;;793.70;1587.20;;;;;;6215783;23;20031;-86
2022/08/01 10:58:31;;;;;;;5.00;2.75;;;768.90;1561.60;;;;;;6215608;23;20503;-87
2022/08/01 11:01:13;;;;;;;4.22;2.92;;;768.90;1587.20;;;;;;6215337;23;20013;-86
2022/08/01 11:03:39;;;;;;;5.53;3.30;;;793.60;1612.80;;;;;;6215153;23;20322;-86
2022/08/01 11:06:06;;;;;;;8.13;5.63;;;793.70;1664.00;;;;;;6215503;23;20092;-85
2022/08/01 11:08:37;;;;;;;4.20;3.17;;;794.20;1612.80;;;;;;6215376;23;20004;-86
2022/08/01 11:11:04;;;;;;;4.50;3.33;;;819.30;1612.80;;;;;;6216622;23;20377;-86
2022/08/01 11:14:09;;;;;;;6.05;3.42;;;819.30;1612.80;;;;;;6215073;23;20441;-86
2022/08/01 11:16:37;;;;;;;6.15;3.03;;;819.30;1612.80;;;;;;6215404;23;20043;-84
2022/08/01 11:19:08;;;;;;;4.32;3.10;;;819.30;1612.80;;;;;;6215032;23;20000;-83
2022/08/01 11:21:52;;;;;;;5.47;4.28;;;819.40;1561.60;;;;;;6214546;23;20005;-81
2022/08/01 11:24:46;;;;;;;6.85;3.47;;;819.30;1587.20;;;;;;6214938;23;20045;-84
2022/08/01 11:27:24;;;;;;;4.78;2.90;;;819.30;1587.20;;;;;;6214866;23;20028;-85
2022/08/01 11:30:08;;;;;;;3.97;2.85;;;794.20;1612.80;;;;;;6214661;23;20005;-83
2022/08/01 11:32:47;;;;;;;5.43;2.63;;;768.90;1612.80;;;;;;6214728;23;20054;-81
2022/08/01 11:35:13;;;;;;;4.80;2.95;;;;;;;;;;6214602;23;19997;-82
2022/08/01 11:37:40;;;;;;;7.13;3.05;;;;;;;;;;6214849;23;20485;-85
2022/08/01 11:40:19;;;;;;;7.40;2.92;;;;;;;;;;6214694;23;20071;-84
2022/08/01 11:42:46;;;;;;;5.40;2.65;;;;;;;;;;6214581;23;20007;-85
2022/08/01 11:45:12;;;;;;;5.47;3.10;;;;;;;;;;6214429;23;20016;-84
2022/08/01 11:47:58;;;;;;;5.03;2.92;;;;;;;;;;6214820;23;20000;-86
2022/08/01 11:50:35;;;;;;;6.32;3.35;;;;;;;;;;6213985;23;20322;-83
2022/08/01 11:53:08;;;;;;;6.28;2.90;;;845.00;1612.80;;;;;;6214359;23;20017;-85
2022/08/01 11:55:36;;;;;;;4.75;2.50;;;845.00;1587.20;;;;;;6214741;23;20000;-83
2022/08/01 11:58:14;;;;;;;4.10;3.08;;;844.80;1561.60;;;;;;6214944;23;20367;-85
2022/08/01 12:00:52;;;;;;;5.50;3.50;;;845.00;1587.20;;;;;;6214358;23;20008;-85
2022/08/01 12:03:27;;;;;;;5.78;3.40;;;844.80;1561.60;;;;;;6214767;23;20007;-82
2022/08/01 12:05:54;;;;;;;4.25;3.00;;;819.90;1587.20;;;;;;6214560;23;20414;-86
2022/08/01 12:08:36;;;;;;;5.72;3.03;;;819.50;1561.60;;;;;;6216009;23;20514;-84
2022/08/01 12:11:05;;;;;;;5.18;3.40;;;819.50;1612.80;;;;;;6215136;23;20439;-85
2022/08/01 12:13:44;;;;;;;12.13;10.20;;;819.30;1612.80;;;;;;6214857;23;20434;-87
2022/08/01 12:16:11;;;;;;;7.57;4.18;;;819.40;1587.20;;;;;;6214845;23;20009;-85
2022/08/01 12:18:44;;;;;;;4.78;3.35;;;819.90;1638.40;;;;;;6214740;23;20009;-89
2022/08/01 12:21:09;;;;;;;5.97;3.97;;;819.70;1536.00;;;;;;6215090;23;20326;-85
2022/08/01 12:23:35;;;;;;;3.97;3.08;;;819.40;1561.60;;;;;;6215168;23;20047;-85
2022/08/01 12:26:03;;;;;;;11.52;10.30;;;819.40;1587.20;;;;;;6214370;23;20005;-84
2022/08/01 12:28:29;;;;;;;9.30;5.95;;;820.00;1561.60;;;;;;6214528;23;20009;-86
2022/08/01 12:30:56;;;;;;;12.07;10.32;;;820.00;1536.00;;;;;;6215256;23;20017;-86
2022/08/01 12:33:23;;;;;;;26.65;18.88;;;820.10;1536.00;;;;;;6215225;23;20058;-87
2022/08/01 12:35:49;;;;;;;12.60;9.70;;;794.20;1561.60;;;;;;6214917;23;20004;-89
2022/08/01 12:38:19;;;;;;;15.40;10.88;;;819.20;1561.60;;;;;;6214760;23;20009;-85
2022/08/01 12:40:47;;;;;;;7.25;4.43;;;819.30;1561.60;;;;;;6214948;23;20005;-87
2022/08/01 12:43:21;;;;;;;7.10;3.70;;;794.30;1536.00;;;;;;6215161;23;20132;-89
2022/08/01 12:45:50;;;;;;;7.00;3.50;;;819.20;1612.80;;;;;;6214992;23;20074;-87
2022/08/01 12:48:18;;;;;;;6.22;4.60;;;819.30;1536.00;;;;;;6216129;23;20426;-85
2022/08/01 12:50:49;;;;;;;7.45;4.32;;;794.50;1510.40;;;;;;6216585;23;20066;-87
2022/08/01 12:53:18;;;;;;;4.75;3.00;;;819.40;1510.40;;;;;;6215958;23;20020;-84
2022/08/01 12:55:45;;;;;;;4.05;2.85;;;819.80;1510.40;;;;;;6216098;23;20011;-81
2022/08/01 12:58:14;;;;;;;7.05;2.70;;;820.10;1510.40;;;;;;6216347;23;20032;-87
2022/08/01 13:00:42;;;;;;;7.25;2.78;;;844.80;1536.00;;;;;;6215670;23;20005;-83
2022/08/01 13:03:07;;;;;;;7.95;3.58;;;845.10;1484.80;;;;;;6216003;23;20505;-85
2022/08/01 13:05:48;;;;;;;7.13;3.10;;;845.20;1484.80;;;;;;6215923;23;20028;-81